Time;durP1;ratioP1;P1;durP2;ratioP2;P2;SDS_P1;SDS_P2;PMS_P1;PMS_P2;Temp;Humidity;BMP_temperature;BMP_pressure;BME280_temperature;BME280_humidity;BME280_pressure;Samples;Min_cycle;Max_cycle;Signal;HPM_P1;HPM_P2
2023/01/29 00:01:12;;;;;;;8.55;7.25;;;;;;;0.31;76.39;102190.09;5010417;28;20208;-72
2023/01/29 00:03:43;;;;;;;10.98;7.20;;;;;;;0.38;75.91;102196.72;5037224;28;20193;-69
2023/01/29 00:06:16;;;;;;;11.38;7.20;;;;;;;0.26;76.23;102184.22;5053293;28;20217;-72
2023/01/29 00:08:51;;;;;;;10.73;7.95;;;;;;;0.22;76.63;102185.41;5021910;28;20265;-69
2023/01/29 00:11:26;;;;;;;10.43;6.82;;;;;;;0.23;76.57;102179.13;5027135;28;20246;-70
2023/01/29 00:14:01;;;;;;;15.02;8.40;;;;;;;0.31;76.60;102191.91;5026212;28;20754;-69
2023/01/29 00:16:32;;;;;;;12.57;8.65;;;;;;;0.26;77.04;102184.22;5020146;28;20229;-70
2023/01/29 00:19:04;;;;;;;16.45;10.00;;;;;;;0.27;76.72;102185.94;5036727;28;20189;-72
2023/01/29 00:21:36;;;;;;;9.85;7.68;;;;;;;0.28;77.02;102195.63;5019115;28;20316;-71
2023/01/29 00:24:07;;;;;;;12.27;8.82;;;;;;;0.12;77.68;102181.66;5025624;28;20690;-69
2023/01/29 00:26:41;;;;;;;9.63;8.23;;;;;;;0.17;77.53;102179.53;4996167;28;20282;-71
2023/01/29 00:29:21;;;;;;;15.10;7.90;;;;;;;0.29;77.35;102175.19;4995714;28;20293;-70
2023/01/29 00:31:51;;;;;;;11.48;7.57;;;;;;;0.22;77.11;102177.41;5013030;28;20201;-70
2023/01/29 00:34:26;;;;;;;13.40;8.65;;;;;;;0.28;77.41;102177.00;4996937;28;20209;-71
2023/01/29 00:37:03;;;;;;;11.57;8.23;;;;;;;0.32;77.36;102167.84;5032215;28;20224;-70
2023/01/29 00:39:37;;;;;;;16.80;10.05;;;;;;;0.38;77.20;102167.44;5003962;28;20201;-71
2023/01/29 00:45:18;;;;;;;14.10;8.45;;;;;;;0.41;77.47;102153.88;4990024;28;20219;-71
2023/01/29 00:47:49;;;;;;;14.50;8.68;;;;;;;0.49;76.86;102152.50;5020715;28;20208;-70
2023/01/29 00:50:20;;;;;;;12.70;8.38;;;;;;;0.47;76.88;102149.09;5024576;28;20659;-71
2023/01/29 00:52:56;;;;;;;11.15;8.95;;;;;;;0.31;77.72;102150.16;5008065;28;20759;-70
2023/01/29 00:55:27;;;;;;;16.30;9.35;;;;;;;0.52;77.23;102146.97;5006954;28;20213;-70
2023/01/29 00:58:00;;;;;;;15.38;9.32;;;;;;;0.64;76.88;102151.41;5015659;28;20226;-70
2023/01/29 01:00:35;;;;;;;15.65;10.38;;;;;;;0.53;76.66;102154.00;5030183;28;20212;-73
2023/01/29 01:03:06;;;;;;;12.35;10.30;;;;;;;0.27;77.08;102154.00;5015290;28;20202;-71
2023/01/29 01:05:38;;;;;;;19.05;9.98;;;;;;;0.37;77.85;102149.75;5041259;28;20232;-71
2023/01/29 01:11:07;;;;;;;15.52;11.27;;;;;;;0.41;78.31;102156.56;5011003;28;20299;-72
2023/01/29 01:13:40;;;;;;;17.02;10.70;;;;;;;0.39;77.33;102158.47;5033038;28;20205;-70
2023/01/29 01:16:14;;;;;;;16.27;10.68;;;;;;;0.19;78.51;102161.66;5019453;28;20773;-72
2023/01/29 01:18:45;;;;;;;16.65;10.63;;;;;;;0.33;78.97;102172.22;5025052;28;20296;-69
2023/01/29 01:21:16;;;;;;;15.75;10.55;;;;;;;0.31;79.10;102166.13;5002431;28;20208;-71
2023/01/29 01:23:50;;;;;;;14.05;10.45;;;;;;;0.33;79.23;102163.38;5019372;28;20263;-70
2023/01/29 01:26:26;;;;;;;16.77;10.95;;;;;;;0.29;79.39;102157.38;5028899;28;20262;-71
2023/01/29 01:28:58;;;;;;;18.05;11.00;;;;;;;0.41;79.47;102161.03;5014965;28;20239;-70
2023/01/29 01:31:40;;;;;;;16.90;12.43;;;;;;;0.43;79.39;102151.97;5008840;28;20197;-71
2023/01/29 01:34:12;;;;;;;16.98;10.82;;;;;;;0.44;79.45;102155.47;5017268;28;20213;-72
2023/01/29 01:36:45;;;;;;;16.77;11.98;;;;;;;0.37;80.00;102152.41;5012683;28;20226;-70
2023/01/29 01:39:20;;;;;;;14.05;10.98;;;;;;;0.41;80.01;102153.88;5039090;28;20197;-71
2023/01/29 01:41:59;;;;;;;17.15;11.40;;;;;;;0.48;79.87;102154.31;5009980;28;20216;-71
2023/01/29 01:45:00;;;;;;;14.88;10.18;;;;;;;0.40;80.33;102160.16;5025476;28;20266;-70
2023/01/29 01:47:39;;;;;;;16.58;11.18;;;;;;;0.49;80.03;102168.47;5034837;28;20225;-72
2023/01/29 01:50:18;;;;;;;18.52;10.98;;;;;;;0.60;79.80;102164.13;5035701;28;20201;-70
2023/01/29 01:53:00;;;;;;;16.35;10.65;;;;;;;0.59;79.53;102149.09;5027031;28;20200;-71
2023/01/29 01:55:34;;;;;;;18.00;12.40;;;;;;;0.53;79.38;102148.69;5032404;28;20217;-70
2023/01/29 01:58:09;;;;;;;15.65;11.07;;;;;;;0.49;79.88;102149.81;5019606;28;20204;-70
2023/01/29 02:00:44;;;;;;;19.15;11.55;;;;;;;0.51;80.48;102146.13;5008198;28;20292;-72
2023/01/29 02:11:58;;;;;;;15.95;11.45;;;;;;;0.34;80.63;102131.28;5013025;28;20578;-71
2023/01/29 02:14:30;;;;;;;18.20;12.52;;;;;;;0.39;80.96;102125.66;5005526;28;20774;-70
2023/01/29 02:17:02;;;;;;;19.30;10.70;;;;;;;0.24;80.80;102129.41;5004382;28;20226;-71
2023/01/29 02:19:48;;;;;;;19.27;12.85;;;;;;;0.49;80.57;102132.03;5020936;28;20193;-71
2023/01/29 02:22:48;;;;;;;22.80;11.93;;;;;;;0.50;80.56;102127.56;5032829;28;20466;-72
2023/01/29 02:25:55;;;;;;;16.42;12.75;;;;;;;0.54;80.33;102113.06;5003100;28;20296;-71
2023/01/29 02:28:37;;;;;;;19.05;12.25;;;;;;;0.42;80.71;102110.31;5018477;28;20312;-73
2023/01/29 02:31:17;;;;;;;17.48;12.93;;;;;;;0.50;80.41;102125.75;5012831;28;20205;-71
2023/01/29 02:34:28;;;;;;;23.80;11.73;;;;;;;0.47;80.36;102120.66;5005976;28;20240;-72
2023/01/29 02:37:03;;;;;;;26.85;12.45;;;;;;;0.46;81.11;102120.75;5009969;28;20222;-71
2023/01/29 02:39:43;;;;;;;22.95;12.02;;;;;;;0.48;81.16;102124.19;5015146;28;20228;-72
2023/01/29 02:42:22;;;;;;;17.05;12.00;;;;;;;0.56;81.08;102122.66;5019491;28;20583;-72
2023/01/29 02:45:06;;;;;;;24.00;11.95;;;;;;;0.59;81.03;102121.59;5016769;28;20285;-71
2023/01/29 02:47:43;;;;;;;16.38;10.73;;;;;;;0.62;80.80;102111.59;5030330;28;20216;-71
2023/01/29 02:50:22;;;;;;;16.55;9.93;;;;;;;0.64;81.18;102116.78;5033974;28;20288;-71
2023/01/29 02:53:08;;;;;;;21.55;12.50;;;;;;;0.59;80.83;102117.13;5030299;28;20204;-72
2023/01/29 02:55:50;;;;;;;16.70;11.00;;;;;;;0.59;81.42;102108.28;5040372;28;20256;-71
2023/01/29 02:58:29;;;;;;;21.63;12.20;;;;;;;0.51;81.58;102103.50;5041218;28;20240;-72
2023/01/29 03:01:08;;;;;;;17.88;12.00;;;;;;;0.63;81.27;102109.78;5038217;28;20208;-71
2023/01/29 03:03:46;;;;;;;22.17;12.90;;;;;;;0.71;80.98;102110.06;5027608;28;20232;-72
2023/01/29 03:06:24;;;;;;;19.40;12.32;;;;;;;0.78;80.95;102111.31;5027771;28;20275;-71
2023/01/29 03:08:59;;;;;;;16.25;12.50;;;;;;;0.69;80.98;102102.19;5039355;28;20205;-73
2023/01/29 03:11:38;;;;;;;17.08;11.93;;;;;;;0.72;81.39;102103.78;5035233;28;20204;-70
2023/01/29 03:14:13;;;;;;;21.98;14.30;;;;;;;0.67;81.66;102098.81;5034321;28;20331;-72
2023/01/29 03:20:08;;;;;;;17.50;11.00;;;;;;;0.59;81.94;102094.94;5044452;28;20675;-71
2023/01/29 03:22:45;;;;;;;19.13;11.40;;;;;;;0.77;82.05;102099.00;5011740;28;20201;-71
2023/01/29 03:34:15;;;;;;;18.95;12.40;;;;;;;0.72;82.34;102080.66;5003373;28;20203;-70
2023/01/29 03:36:54;;;;;;;18.85;12.20;;;;;;;0.73;82.20;102081.50;5013387;28;20217;-70
2023/01/29 03:39:29;;;;;;;17.73;11.43;;;;;;;0.62;82.72;102076.09;5017133;28;20197;-71
2023/01/29 03:42:13;;;;;;;21.27;12.38;;;;;;;0.64;82.80;102060.84;5021905;28;20198;-71
2023/01/29 03:44:55;;;;;;;22.13;15.13;;;;;;;0.73;82.85;102060.19;5018436;28;20193;-70
2023/01/29 03:47:46;;;;;;;19.73;12.77;;;;;;;0.75;82.38;102048.47;5004355;28;20221;-71
2023/01/29 03:50:35;;;;;;;18.35;12.48;;;;;;;0.70;82.63;102045.28;5042886;28;20207;-71
2023/01/29 03:53:15;;;;;;;21.25;12.23;;;;;;;0.70;82.65;102039.94;5022981;28;20198;-72
2023/01/29 03:55:57;;;;;;;21.88;14.60;;;;;;;0.62;83.64;102034.34;5026835;28;20244;-72
2023/01/29 03:58:40;;;;;;;21.13;13.30;;;;;;;0.62;83.57;102021.00;5031892;28;20241;-72
2023/01/29 04:01:18;;;;;;;22.70;14.10;;;;;;;0.58;84.67;102024.00;5037591;28;20212;-71
2023/01/29 04:03:57;;;;;;;20.33;13.88;;;;;;;0.52;85.64;102013.78;5031527;28;20262;-71
2023/01/29 04:06:34;;;;;;;19.33;12.88;;;;;;;0.63;85.58;102013.88;5015938;28;20267;-71
2023/01/29 04:09:12;;;;;;;23.55;14.98;;;;;;;0.75;85.49;102012.97;5015678;28;20251;-71
2023/01/29 04:11:52;;;;;;;23.10;15.77;;;;;;;0.62;86.15;102001.50;5024571;28;20207;-70
2023/01/29 04:14:25;;;;;;;20.23;13.23;;;;;;;0.62;86.44;101999.69;5021662;28;20671;-71
2023/01/29 04:17:00;;;;;;;15.38;11.38;;;;;;;0.68;86.85;101998.38;5023495;28;20217;-70
2023/01/29 04:20:04;;;;;;;17.83;12.18;;;;;;;0.63;87.90;101989.91;5027064;28;20292;-70
2023/01/29 04:22:38;;;;;;;20.40;12.90;;;;;;;0.60;88.32;101995.44;5015034;28;20244;-71
2023/01/29 04:25:14;;;;;;;19.80;14.30;;;;;;;0.40;89.60;101995.06;5010917;28;20278;-69
2023/01/29 04:27:58;;;;;;;19.92;13.00;;;;;;;0.47;90.87;101994.63;5002920;28;20224;-71
2023/01/29 04:30:40;;;;;;;20.52;13.65;;;;;;;0.40;91.81;101980.88;5011303;28;20288;-71
2023/01/29 04:33:30;;;;;;;19.83;15.50;;;;;;;0.56;91.56;101988.63;5017806;28;20198;-70
2023/01/29 04:36:14;;;;;;;22.98;13.95;;;;;;;0.53;91.64;101979.06;5002327;28;20229;-72
2023/01/29 04:39:03;;;;;;;28.38;14.00;;;;;;;0.70;91.31;101981.34;5035405;28;20640;-70
2023/01/29 04:41:42;;;;;;;23.80;15.02;;;;;;;0.60;91.73;101980.31;5013863;28;20228;-70
2023/01/29 04:44:19;;;;;;;20.02;15.00;;;;;;;0.56;91.94;101983.31;5002047;28;20401;-71
2023/01/29 04:46:58;;;;;;;19.23;12.10;;;;;;;0.57;92.62;101975.22;5026493;28;20240;-70
2023/01/29 04:49:35;;;;;;;24.92;14.75;;;;;;;0.71;92.43;101983.03;5026887;28;20198;-70
2023/01/29 04:52:16;;;;;;;23.67;15.05;;;;;;;0.55;93.47;101986.91;5033130;28;20200;-72
2023/01/29 04:55:09;;;;;;;27.77;15.98;;;;;;;0.63;93.71;101989.91;5029182;28;20560;-71
2023/01/29 04:57:50;;;;;;;21.23;13.30;;;;;;;0.56;94.45;101997.47;5023863;28;20209;-72
2023/01/29 05:00:28;;;;;;;24.25;13.77;;;;;;;0.62;94.72;101988.19;5016599;28;20212;-70
2023/01/29 05:03:02;;;;;;;23.15;15.05;;;;;;;0.50;94.77;101995.25;5039119;28;20201;-70
2023/01/29 05:05:34;;;;;;;26.90;13.82;;;;;;;0.59;95.01;101983.06;5043419;28;20232;-71
2023/01/29 05:08:07;;;;;;;26.77;13.23;;;;;;;0.50;95.48;101995.25;5031857;28;20198;-71
2023/01/29 05:10:42;;;;;;;26.48;15.80;;;;;;;0.50;95.91;101997.06;5009313;28;20213;-70
2023/01/29 05:13:15;;;;;;;26.45;14.73;;;;;;;0.55;96.17;101997.56;5012419;28;20407;-70
2023/01/29 05:15:51;;;;;;;24.55;15.98;;;;;;;0.60;96.47;101996.28;5024602;28;20236;-70
2023/01/29 05:18:22;;;;;;;28.60;16.05;;;;;;;0.68;96.39;101983.25;5003644;28;20228;-71
2023/01/29 05:20:58;;;;;;;21.35;15.07;;;;;;;0.49;95.98;101985.53;5027196;28;20193;-72
2023/01/29 05:23:31;;;;;;;30.63;15.80;;;;;;;0.56;96.66;101993.97;5030124;28;20216;-71
2023/01/29 05:29:21;;;;;;;25.58;15.52;;;;;;;0.45;97.12;101997.38;4958027;28;20203;-70
2023/01/29 05:31:54;;;;;;;24.35;14.35;;;;;;;0.44;97.46;101991.22;5020704;28;20189;-70
2023/01/29 05:34:25;;;;;;;25.98;16.30;;;;;;;0.60;97.36;101995.44;5030837;28;20339;-71
2023/01/29 05:36:57;;;;;;;30.08;15.80;;;;;;;0.50;96.55;101995.25;4995407;28;20225;-72
2023/01/29 05:39:28;;;;;;;27.00;16.00;;;;;;;0.55;96.88;101993.09;5008129;28;20197;-71
2023/01/29 05:42:02;;;;;;;25.83;15.57;;;;;;;0.76;96.07;101993.38;5018455;28;20213;-69
2023/01/29 05:44:42;;;;;;;24.63;15.25;;;;;;;0.65;95.76;101994.13;5014408;28;20245;-72
2023/01/29 05:47:12;;;;;;;25.73;14.25;;;;;;;0.60;96.00;101990.09;5011618;28;20209;-70
2023/01/29 05:49:45;;;;;;;22.48;14.40;;;;;;;0.78;95.72;101996.75;5013521;28;20205;-71
2023/01/29 05:52:20;;;;;;;24.00;15.68;;;;;;;0.79;95.35;102001.13;5013829;28;20209;-70
2023/01/29 05:54:50;;;;;;;28.85;16.38;;;;;;;0.78;95.24;102004.75;5042763;28;20203;-70
2023/01/29 05:57:25;;;;;;;24.63;16.63;;;;;;;0.82;95.12;102000.91;5057129;28;20232;-70
2023/01/29 05:59:57;;;;;;;28.42;15.70;;;;;;;0.83;95.02;102014.09;5041344;28;20231;-71
2023/01/29 06:02:34;;;;;;;24.52;17.50;;;;;;;0.88;94.76;102016.44;5040726;28;20197;-71
2023/01/29 06:05:09;;;;;;;29.92;15.77;;;;;;;0.81;94.95;102012.53;5019135;28;20200;-71
2023/01/29 06:07:44;;;;;;;28.15;15.82;;;;;;;0.70;95.25;102012.47;5037170;28;20291;-71
2023/01/29 06:10:17;;;;;;;29.20;17.45;;;;;;;0.63;95.58;102011.22;5052908;28;20217;-71
2023/01/29 06:12:51;;;;;;;26.50;16.60;;;;;;;0.90;94.98;102019.00;5014694;28;20256;-70
2023/01/29 06:15:25;;;;;;;23.50;15.85;;;;;;;0.80;94.87;102024.16;5019524;28;20271;-73
2023/01/29 06:17:58;;;;;;;25.38;15.80;;;;;;;0.84;95.20;102022.97;5022408;28;20206;-70
2023/01/29 06:20:30;;;;;;;30.13;17.65;;;;;;;0.81;95.07;102021.38;5015713;28;20186;-70
2023/01/29 06:23:06;;;;;;;32.08;18.42;;;;;;;0.99;94.85;102021.84;5014024;28;20546;-69
2023/01/29 06:25:39;;;;;;;26.88;15.88;;;;;;;0.95;95.04;102007.03;5021935;28;20304;-70
2023/01/29 06:28:14;;;;;;;26.42;15.65;;;;;;;0.98;94.85;102011.28;5009744;28;20608;-72
2023/01/29 06:30:46;;;;;;;30.55;17.77;;;;;;;0.87;95.42;102014.75;5018629;28;20609;-70
2023/01/29 06:33:18;;;;;;;28.52;15.27;;;;;;;0.86;95.61;102013.91;5018093;28;20285;-70
2023/01/29 06:35:49;;;;;;;28.95;16.35;;;;;;;0.73;96.00;102007.75;5018365;28;20213;-70
2023/01/29 06:38:23;;;;;;;25.85;17.40;;;;;;;0.78;96.06;102002.06;5019555;28;20285;-71
2023/01/29 06:40:59;;;;;;;28.45;17.02;;;;;;;0.78;96.53;102002.06;5000042;28;20243;-70
2023/01/29 06:43:42;;;;;;;29.73;16.45;;;;;;;0.84;95.96;102010.47;5014228;28;20300;-71
2023/01/29 06:46:14;;;;;;;32.17;18.65;;;;;;;0.79;95.84;102012.63;5004674;28;20226;-70
2023/01/29 06:48:45;;;;;;;29.45;16.50;;;;;;;0.96;96.23;102014.06;5014077;28;20198;-71
2023/01/29 06:51:20;;;;;;;28.08;18.35;;;;;;;0.96;95.77;102015.88;5009037;28;20725;-71
2023/01/29 06:53:53;;;;;;;29.38;18.35;;;;;;;0.86;95.83;102029.03;5014482;28;20197;-71
2023/01/29 06:56:24;;;;;;;32.25;18.23;;;;;;;0.89;95.96;102015.47;5015906;28;20248;-71
2023/01/29 06:59:00;;;;;;;24.85;16.00;;;;;;;0.92;96.35;102017.91;5015782;28;20217;-71
2023/01/29 07:01:35;;;;;;;29.20;17.52;;;;;;;0.80;96.32;102026.81;5030239;28;20200;-70
2023/01/29 07:04:08;;;;;;;25.95;15.73;;;;;;;0.78;96.50;102012.75;5022299;28;20656;-70
2023/01/29 07:06:44;;;;;;;26.23;17.08;;;;;;;0.79;96.92;102006.44;5002601;28;20214;-70
2023/01/29 07:09:16;;;;;;;26.25;15.63;;;;;;;0.79;97.24;102009.13;5019725;28;20201;-71
2023/01/29 07:11:46;;;;;;;29.13;17.67;;;;;;;0.86;97.34;102011.25;5035299;28;20192;-70
2023/01/29 07:14:20;;;;;;;27.75;16.33;;;;;;;0.73;97.59;102006.88;5023802;28;20197;-72
2023/01/29 07:16:56;;;;;;;34.65;16.95;;;;;;;0.75;97.56;101999.66;5014292;28;20210;-71
2023/01/29 07:19:30;;;;;;;25.48;16.13;;;;;;;0.75;97.81;101994.31;5015634;28;20174;-71
2023/01/29 07:22:03;;;;;;;31.65;18.00;;;;;;;0.73;98.46;101991.75;5016817;28;20193;-70
2023/01/29 07:24:35;;;;;;;26.52;16.75;;;;;;;0.89;97.95;102002.16;4998398;28;20576;-71
2023/01/29 07:27:10;;;;;;;29.10;18.15;;;;;;;0.93;97.21;102030.28;5012996;28;20222;-71
2023/01/29 07:29:43;;;;;;;27.45;16.92;;;;;;;0.85;97.52;102025.50;5000050;28;20349;-70
2023/01/29 07:32:16;;;;;;;31.00;15.05;;;;;;;0.94;97.00;102020.47;5038126;28;20205;-70
2023/01/29 07:34:50;;;;;;;31.73;16.55;;;;;;;0.95;97.15;102023.03;5017809;28;20570;-72
2023/01/29 07:37:22;;;;;;;29.48;16.83;;;;;;;1.04;96.86;102022.34;5011441;28;20301;-70
2023/01/29 07:39:54;;;;;;;30.08;15.60;;;;;;;1.13;96.44;102005.66;5005119;28;20198;-70
2023/01/29 07:42:28;;;;;;;30.00;19.80;;;;;;;1.16;95.94;102000.09;5028294;28;20194;-71
2023/01/29 07:45:07;;;;;;;27.80;17.33;;;;;;;1.17;96.06;101995.63;5005212;28;20201;-72
2023/01/29 07:47:39;;;;;;;29.13;17.17;;;;;;;1.15;96.04;101990.41;5008616;28;20198;-70
2023/01/29 07:50:12;;;;;;;28.35;16.42;;;;;;;1.15;96.55;101971.75;5027467;28;20671;-70
2023/01/29 07:52:47;;;;;;;27.35;16.48;;;;;;;1.09;96.74;101974.03;5031304;28;20288;-70
2023/01/29 07:55:24;;;;;;;31.23;17.63;;;;;;;1.16;96.70;101968.09;5016713;28;20206;-71
2023/01/29 07:57:57;;;;;;;34.25;20.42;;;;;;;1.23;97.10;101969.34;5031145;28;20713;-70
2023/01/29 08:00:36;;;;;;;32.17;18.27;;;;;;;1.17;97.18;101985.81;5019416;28;20209;-69
2023/01/29 08:03:12;;;;;;;28.98;17.27;;;;;;;1.27;96.89;101981.47;5016827;28;20228;-69
2023/01/29 08:05:50;;;;;;;24.85;16.80;;;;;;;1.17;97.32;101969.81;5009905;28;20248;-71
2023/01/29 08:08:25;;;;;;;31.50;17.38;;;;;;;1.24;97.51;101967.53;5008585;28;20555;-71
2023/01/29 08:10:56;;;;;;;29.05;19.30;;;;;;;1.15;97.59;101965.56;5004371;28;20569;-72
2023/01/29 08:13:29;;;;;;;34.95;19.20;;;;;;;1.05;98.38;101961.88;5016762;28;20556;-70
2023/01/29 08:16:13;;;;;;;30.10;18.42;;;;;;;1.10;98.81;101957.91;5011150;28;20217;-72
2023/01/29 08:18:46;;;;;;;30.75;17.95;;;;;;;1.14;98.65;101963.88;5005793;28;20205;-70
2023/01/29 08:21:17;;;;;;;41.20;20.75;;;;;;;1.18;98.84;101974.19;5031007;28;20194;-70
2023/01/29 08:23:49;;;;;;;37.10;17.92;;;;;;;1.25;98.52;101978.09;5015801;28;20196;-70
2023/01/29 08:26:25;;;;;;;32.25;16.45;;;;;;;1.11;98.98;101972.09;5024616;28;20280;-70
2023/01/29 08:28:58;;;;;;;30.83;16.70;;;;;;;1.30;99.05;101970.59;5007039;28;20752;-71
2023/01/29 08:31:32;;;;;;;31.40;18.33;;;;;;;1.24;98.61;101973.72;5017617;28;20296;-71
2023/01/29 08:34:04;;;;;;;35.70;18.80;;;;;;;1.19;98.98;101962.56;5022514;28;20212;-71
2023/01/29 08:36:40;;;;;;;27.85;15.77;;;;;;;1.16;98.89;101959.28;5033416;28;20232;-71
2023/01/29 08:39:12;;;;;;;34.95;19.23;;;;;;;1.35;98.65;101966.72;5007895;28;20641;-71
2023/01/29 08:41:43;;;;;;;30.63;19.88;;;;;;;1.45;98.20;101959.72;5029880;28;20293;-71
2023/01/29 08:44:14;;;;;;;33.00;17.92;;;;;;;1.42;98.75;101950.13;5025976;28;20288;-71
2023/01/29 08:47:02;;;;;;;38.03;20.60;;;;;;;1.53;97.91;101958.16;5034463;28;20745;-70
2023/01/29 08:49:34;;;;;;;34.38;19.20;;;;;;;1.60;97.78;101961.19;5016920;28;20178;-70
2023/01/29 08:52:11;;;;;;;29.00;15.90;;;;;;;1.47;97.72;101960.44;5050214;28;20202;-71
2023/01/29 08:54:50;;;;;;;32.88;19.20;;;;;;;1.36;98.49;101953.25;5049532;28;20355;-71
2023/01/29 08:57:24;;;;;;;33.75;20.27;;;;;;;1.49;97.76;101958.53;5036212;28;20228;-72
2023/01/29 08:59:57;;;;;;;32.45;18.58;;;;;;;1.33;98.93;101949.97;5001993;28;20210;-72
2023/01/29 09:02:34;;;;;;;30.08;18.40;;;;;;;1.47;98.84;101952.44;5009094;28;20193;-70
2023/01/29 09:05:06;;;;;;;32.15;19.85;;;;;;;1.52;98.25;101952.94;5023236;28;20205;-71
2023/01/29 09:07:39;;;;;;;33.47;18.10;;;;;;;1.61;98.00;101945.06;5010743;28;20196;-71
2023/01/29 09:10:11;;;;;;;33.55;17.60;;;;;;;1.60;97.57;101953.19;5016241;28;20197;-71
2023/01/29 09:12:43;;;;;;;34.45;17.33;;;;;;;1.53;97.82;101944.81;5028238;28;20190;-70
2023/01/29 09:15:22;;;;;;;31.65;19.48;;;;;;;1.78;97.61;101959.78;5002514;28;20194;-74
2023/01/29 09:17:58;;;;;;;31.15;17.42;;;;;;;1.72;97.11;101954.91;5022109;28;20683;-71
2023/01/29 09:20:30;;;;;;;30.55;21.02;;;;;;;1.85;96.51;101942.31;5033551;28;20729;-71
2023/01/29 09:23:06;;;;;;;28.40;15.52;;;;;;;1.95;96.15;101940.63;5036105;28;20532;-71
2023/01/29 09:25:44;;;;;;;27.88;17.70;;;;;;;1.88;95.54;101950.09;5010934;28;20263;-72
2023/01/29 09:28:25;;;;;;;32.58;17.63;;;;;;;1.80;96.39;101952.50;5019800;28;20201;-72
2023/01/29 09:30:59;;;;;;;40.88;17.88;;;;;;;1.91;95.99;101949.00;5029410;28;20190;-72
2023/01/29 09:33:35;;;;;;;31.27;18.00;;;;;;;1.82;96.01;101945.22;5011869;28;20196;-73
2023/01/29 09:36:07;;;;;;;33.80;19.38;;;;;;;1.85;95.61;101939.63;5020963;28;20311;-73
2023/01/29 09:39:10;;;;;;;32.28;17.63;;;;;;;1.80;95.99;101943.63;5029867;28;20200;-72
2023/01/29 09:41:53;;;;;;;30.42;16.98;;;;;;;2.01;96.18;101934.81;5041672;28;20248;-71
2023/01/29 09:44:45;;;;;;;27.50;16.52;;;;;;;2.16;94.35;101932.72;5021124;28;20201;-72
2023/01/29 09:47:20;;;;;;;26.20;15.73;;;;;;;2.01;93.59;101916.09;5032873;28;20217;-71
2023/01/29 09:50:04;;;;;;;26.30;16.60;;;;;;;1.99;93.21;101915.38;5013919;28;20295;-74
2023/01/29 09:52:42;;;;;;;32.25;19.02;;;;;;;1.96;93.51;101912.09;5028722;28;20233;-72
2023/01/29 09:55:28;;;;;;;27.23;15.95;;;;;;;2.13;93.58;101917.78;5011928;28;20224;-72
2023/01/29 09:58:06;;;;;;;32.38;17.35;;;;;;;2.31;92.51;101906.59;5008092;28;20261;-72
2023/01/29 10:01:14;;;;;;;28.08;18.08;;;;;;;2.19;91.92;101906.63;5020622;28;20197;-72
2023/01/29 10:04:08;;;;;;;23.60;15.52;;;;;;;2.34;91.76;101893.00;5036527;28;20193;-72
2023/01/29 10:06:57;;;;;;;25.77;16.27;;;;;;;2.52;90.65;101891.47;5036615;28;20220;-70
2023/01/29 10:10:08;;;;;;;24.17;15.27;;;;;;;2.45;89.76;101898.31;4997867;28;20190;-72
2023/01/29 10:12:54;;;;;;;25.02;16.38;;;;;;;2.48;90.11;101884.69;5014985;28;20232;-72
2023/01/29 10:15:51;;;;;;;27.02;15.75;;;;;;;2.59;90.15;101884.66;5033493;28;20285;-73
2023/01/29 10:19:01;;;;;;;24.88;16.67;;;;;;;2.61;90.14;101885.41;5028882;28;20206;-71
2023/01/29 10:22:05;;;;;;;25.65;14.95;;;;;;;2.93;88.64;101888.91;5017497;28;20221;-71
2023/01/29 10:24:52;;;;;;;24.38;14.88;;;;;;;2.93;88.46;101896.94;5020473;28;20293;-72
2023/01/29 10:27:34;;;;;;;20.08;13.18;;;;;;;3.13;87.40;101902.44;5024262;28;20304;-72
2023/01/29 10:30:21;;;;;;;19.73;13.77;;;;;;;3.13;86.77;101918.47;5030854;28;20652;-71
2023/01/29 10:32:55;;;;;;;23.35;13.20;;;;;;;3.28;87.36;101901.13;5019692;28;20300;-71
2023/01/29 10:35:34;;;;;;;23.67;14.15;;;;;;;3.49;86.44;101897.44;5003890;28;20201;-74
2023/01/29 10:38:29;;;;;;;29.30;16.00;;;;;;;3.77;85.55;101889.72;5016191;28;20220;-73
2023/01/29 10:41:14;;;;;;;27.15;14.50;;;;;;;3.37;84.37;101873.59;5032443;28;20310;-72
2023/01/29 10:43:58;;;;;;;24.05;15.93;;;;;;;3.38;85.41;101869.94;5036303;28;20709;-71
2023/01/29 10:46:43;;;;;;;22.52;14.38;;;;;;;3.35;85.36;101871.03;5027124;28;20206;-71
2023/01/29 10:49:33;;;;;;;20.77;12.75;;;;;;;3.53;84.47;101865.94;5012340;28;20194;-73
2023/01/29 10:52:43;;;;;;;21.70;13.15;;;;;;;3.55;83.55;101857.75;5038262;28;20224;-72
2023/01/29 10:55:29;;;;;;;18.33;13.35;;;;;;;3.78;83.25;101857.44;5005416;28;20198;-71
2023/01/29 10:58:18;;;;;;;19.50;13.02;;;;;;;3.83;82.25;101855.22;5018636;28;20226;-70
2023/01/29 11:00:53;;;;;;;21.15;16.40;;;;;;;3.65;82.32;101832.75;5026375;28;20185;-72
2023/01/29 11:03:27;;;;;;;20.40;12.68;;;;;;;3.84;82.49;101824.78;5028234;28;20190;-72
2023/01/29 11:06:15;;;;;;;20.70;13.00;;;;;;;3.88;81.78;101828.88;5045520;28;20230;-73
2023/01/29 11:08:55;;;;;;;18.83;12.30;;;;;;;4.10;81.13;101837.69;4993731;28;20605;-71
2023/01/29 11:11:37;;;;;;;16.27;10.90;;;;;;;4.05;80.96;101813.13;5008083;28;20676;-72
2023/01/29 11:14:14;;;;;;;20.70;13.63;;;;;;;4.31;80.25;101806.25;5010746;28;20197;-72
2023/01/29 11:16:47;;;;;;;26.48;15.63;;;;;;;4.13;79.42;101813.28;5025570;28;20316;-72
2023/01/29 11:19:36;;;;;;;24.60;13.68;;;;;;;4.18;79.92;101811.03;5024309;28;20220;-74
2023/01/29 11:22:15;;;;;;;18.50;10.95;;;;;;;4.61;79.06;101803.47;4997295;28;20300;-70
2023/01/29 11:24:46;;;;;;;19.88;11.80;;;;;;;4.71;78.11;101804.31;5001384;28;20206;-71
2023/01/29 11:27:29;;;;;;;20.85;12.77;;;;;;;4.72;76.74;101811.38;5027117;28;20602;-73
2023/01/29 11:30:02;;;;;;;24.58;13.70;;;;;;;4.61;77.19;101794.56;5026918;28;20204;-71
2023/01/29 11:32:35;;;;;;;16.90;11.52;;;;;;;4.17;77.78;101802.16;5044739;28;20189;-71
2023/01/29 11:35:22;;;;;;;19.88;11.43;;;;;;;4.46;77.65;101788.78;5040704;28;20212;-71
2023/01/29 11:37:53;;;;;;;18.73;11.98;;;;;;;4.53;77.07;101781.03;5027660;28;20281;-70
2023/01/29 11:40:48;;;;;;;18.33;13.75;;;;;;;4.44;77.21;101782.72;5042489;28;20200;-71
2023/01/29 11:43:28;;;;;;;20.10;13.45;;;;;;;4.31;76.91;101784.81;5046022;28;20201;-70
2023/01/29 11:46:03;;;;;;;19.52;12.95;;;;;;;4.29;77.39;101781.44;5022150;28;20229;-72
2023/01/29 11:48:44;;;;;;;19.30;12.98;;;;;;;4.33;77.25;101775.66;5016482;28;20205;-70
2023/01/29 11:51:26;;;;;;;17.88;12.77;;;;;;;4.47;77.60;101769.03;5020130;28;20205;-72
2023/01/29 11:53:59;;;;;;;20.98;13.27;;;;;;;4.68;77.14;101772.41;5034107;28;20205;-71
2023/01/29 11:56:34;;;;;;;25.23;14.75;;;;;;;4.67;75.88;101768.03;5043512;28;20217;-72
2023/01/29 11:59:29;;;;;;;16.42;10.05;;;;;;;4.60;76.51;101769.59;5025627;28;20245;-71
2023/01/29 12:02:08;;;;;;;19.00;12.57;;;;;;;4.63;76.43;101763.97;5048940;28;20216;-72
2023/01/29 12:04:40;;;;;;;20.42;12.32;;;;;;;4.75;76.06;101754.75;5026793;28;20201;-71
2023/01/29 12:07:15;;;;;;;18.10;11.85;;;;;;;4.90;75.06;101756.97;5045309;28;20248;-71
2023/01/29 12:09:53;;;;;;;21.40;12.40;;;;;;;4.92;74.42;101736.25;5035111;28;20452;-73
2023/01/29 12:12:42;;;;;;;23.73;12.70;;;;;;;4.78;74.17;101735.72;5037503;28;20232;-72
2023/01/29 12:15:24;;;;;;;20.08;12.52;;;;;;;4.92;73.87;101737.09;5040038;28;20197;-70
2023/01/29 12:18:09;;;;;;;25.67;13.07;;;;;;;5.06;74.30;101739.31;5033322;28;20205;-72
2023/01/29 12:20:46;;;;;;;17.73;12.60;;;;;;;4.77;74.07;101749.25;5016314;28;20213;-71
2023/01/29 12:23:32;;;;;;;20.92;12.82;;;;;;;4.50;75.24;101743.81;5039810;28;20201;-72
2023/01/29 12:26:09;;;;;;;26.77;11.80;;;;;;;4.70;75.01;101746.28;5006965;28;20294;-71
2023/01/29 12:28:51;;;;;;;17.02;10.63;;;;;;;4.54;75.06;101738.00;5031375;28;20201;-71
2023/01/29 12:31:33;;;;;;;16.23;11.40;;;;;;;4.50;75.70;101731.25;4999844;28;20201;-70
2023/01/29 12:34:15;;;;;;;19.08;12.02;;;;;;;4.55;74.72;101720.91;5014467;28;20280;-71
2023/01/29 12:36:52;;;;;;;16.13;9.80;;;;;;;4.43;75.70;101702.47;5014962;28;20221;-71